Time;durP1;ratioP1;P1;durP2;ratioP2;P2;SDS_P1;SDS_P2;PMS_P1;PMS_P2;Temp;Humidity;BMP_temperature;BMP_pressure;BME280_temperature;BME280_humidity;BME280_pressure;Samples;Min_cycle;Max_cycle;Signal;HPM_P1;HPM_P2
2023/06/21 00:01:38;;;;;;;11.38;7.13;;;22.20;98.80;22.40;100113.00;;;;4953988;28;87131;-70
2023/06/21 00:04:08;;;;;;;11.07;7.05;;;22.20;99.00;22.30;100121.00;;;;4953298;28;88208;-70
2023/06/21 00:06:36;;;;;;;10.65;8.00;;;22.20;99.10;22.30;100125.00;;;;4958228;28;101254;-70
2023/06/21 00:09:05;;;;;;;8.20;6.22;;;22.10;99.20;22.30;100120.00;;;;4955372;28;88814;-70
2023/06/21 00:11:32;;;;;;;9.18;6.88;;;22.10;99.30;22.30;100117.00;;;;4957881;28;87921;-70
2023/06/21 00:13:58;;;;;;;12.25;7.68;;;22.10;99.40;22.30;100115.00;;;;4951778;28;97276;-70
2023/06/21 00:16:23;;;;;;;10.50;7.72;;;22.10;99.50;22.30;100120.00;;;;4937018;28;87832;-70
2023/06/21 00:18:49;;;;;;;8.82;5.70;;;22.10;99.60;22.30;100120.00;;;;4954089;28;107221;-70
2023/06/21 00:21:15;;;;;;;8.50;6.47;;;22.20;99.70;22.40;100127.00;;;;4956380;28;110990;-70
2023/06/21 00:23:44;;;;;;;11.07;7.45;;;22.20;99.70;22.40;100119.00;;;;4956862;28;99268;-70
2023/06/21 00:26:10;;;;;;;8.63;5.95;;;22.20;99.90;22.40;100121.00;;;;4935343;28;94438;-70
2023/06/21 00:28:36;;;;;;;7.10;6.13;;;22.20;99.90;22.40;100117.00;;;;4955708;28;87801;-70
2023/06/21 00:31:01;;;;;;;7.53;6.57;;;22.20;99.90;22.40;100116.00;;;;4954604;28;102926;-69
2023/06/21 00:33:27;;;;;;;6.40;5.65;;;22.20;99.90;22.50;100114.00;;;;4953198;28;92457;-70
2023/06/21 00:35:53;;;;;;;10.68;6.47;;;22.30;99.90;22.50;100107.00;;;;4953400;28;89261;-69
2023/06/21 00:38:20;;;;;;;7.07;6.32;;;22.30;99.90;22.50;100106.00;;;;4950457;28;118131;-70
2023/06/21 00:40:47;;;;;;;7.47;6.53;;;22.30;99.90;22.60;100096.00;;;;4953624;28;87902;-70
2023/06/21 00:43:12;;;;;;;9.23;6.85;;;22.40;99.90;22.60;100108.00;;;;4952992;28;87792;-69
2023/06/21 00:45:40;;;;;;;9.73;6.28;;;22.40;99.90;22.60;100094.00;;;;4954456;28;117886;-70
2023/06/21 00:48:06;;;;;;;9.52;6.68;;;22.40;99.90;22.60;100105.00;;;;4937123;28;87875;-70
2023/06/21 00:50:32;;;;;;;9.63;6.93;;;22.40;99.90;22.60;100096.00;;;;4936962;28;87172;-70
2023/06/21 00:52:58;;;;;;;8.88;6.68;;;22.40;99.90;22.60;100101.00;;;;4952643;28;108212;-70
2023/06/21 00:55:24;;;;;;;8.70;5.70;;;22.30;99.90;22.70;100102.00;;;;4950003;28;91335;-70
2023/06/21 00:57:51;;;;;;;7.22;5.82;;;22.40;99.90;22.70;100104.00;;;;4952288;28;116143;-70
2023/06/21 01:00:20;;;;;;;12.25;8.07;;;22.50;99.90;22.70;100104.00;;;;4951207;28;88911;-70
2023/06/21 01:02:48;;;;;;;10.75;7.00;;;22.50;99.90;22.70;100106.00;;;;4954928;28;89870;-69
2023/06/21 01:05:16;;;;;;;8.77;5.85;;;22.50;99.90;22.80;100103.00;;;;4932331;28;89005;-70
2023/06/21 01:08:03;;;;;;;10.93;7.28;;;22.50;99.90;22.80;100119.00;;;;4972323;28;88886;-70
2023/06/21 01:11:14;;;;;;;9.65;6.97;;;22.60;99.90;22.80;100136.00;;;;4972216;28;92278;-70
2023/06/21 01:14:17;;;;;;;9.95;7.25;;;22.60;99.90;22.80;100141.00;;;;4876378;28;87983;-70
2023/06/21 01:16:49;;;;;;;10.07;7.05;;;22.60;99.90;22.80;100166.00;;;;4931270;28;106694;-70
2023/06/21 01:19:39;;;;;;;8.77;6.65;;;22.60;99.90;22.70;100189.00;;;;4971486;28;102070;-69
2023/06/21 01:22:24;;;;;;;9.45;6.90;;;22.60;99.90;22.70;100206.00;;;;4972253;28;87659;-71
2023/06/21 01:25:48;;;;;;;10.60;8.32;;;22.60;99.90;22.60;100229.00;;;;4971983;28;89340;-69
2023/06/21 01:28:47;;;;;;;9.52;6.85;;;22.50;99.90;22.50;100236.00;;;;4972359;28;87860;-71
2023/06/21 01:31:16;;;;;;;10.50;7.85;;;22.40;99.90;22.30;100268.00;;;;4956056;28;87885;-70
2023/06/21 01:33:42;;;;;;;9.90;7.38;;;22.20;99.90;22.20;100277.00;;;;4975399;28;87854;-70
2023/06/21 01:36:11;;;;;;;8.45;7.25;;;22.10;99.90;22.20;100273.00;;;;4956480;28;93866;-70
2023/06/21 01:38:37;;;;;;;11.45;6.40;;;22.00;99.90;22.00;100280.00;;;;4967700;28;88392;-72
2023/06/21 01:41:03;;;;;;;7.78;6.95;;;21.90;99.90;21.80;100280.00;;;;4970863;28;88820;-71
2023/06/21 01:43:30;;;;;;;8.00;6.00;;;21.80;99.90;21.70;100273.00;;;;4970446;28;87037;-72
2023/06/21 01:45:58;;;;;;;13.13;7.15;;;21.00;99.90;21.60;100262.00;;;;4956367;28;107485;-72
2023/06/21 01:48:24;;;;;;;11.88;6.30;;;21.50;99.90;21.40;100238.00;;;;4953171;28;101454;-70
2023/06/21 01:50:51;;;;;;;10.77;5.45;;;21.30;99.90;21.20;100253.00;;;;4968915;28;116267;-64
2023/06/21 01:53:19;;;;;;;7.68;5.00;;;21.20;99.90;21.00;100240.00;;;;4970646;28;88395;-65
2023/06/21 01:55:49;;;;;;;5.00;4.05;;;21.00;99.90;20.90;100246.00;;;;4957178;28;87894;-66
2023/06/21 01:58:16;;;;;;;6.85;4.80;;;20.80;99.90;20.80;100243.00;;;;4968637;28;88756;-66
2023/06/21 02:00:44;;;;;;;8.98;5.75;;;20.70;99.90;20.70;100244.00;;;;4968142;28;117163;-68
2023/06/21 02:03:11;;;;;;;6.75;5.72;;;20.70;99.90;20.70;100245.00;;;;4969940;28;87804;-67
2023/06/21 02:05:37;;;;;;;7.15;5.22;;;20.60;99.90;20.70;100254.00;;;;4949917;28;88168;-67
2023/06/21 02:08:07;;;;;;;7.85;6.20;;;20.60;99.90;20.70;100242.00;;;;4971168;28;88203;-69
2023/06/21 02:10:32;;;;;;;7.20;4.88;;;20.50;99.90;20.70;100242.00;;;;4973310;28;87907;-70
2023/06/21 02:12:58;;;;;;;6.20;5.60;;;20.50;99.90;20.60;100233.00;;;;4970809;28;110967;-68
2023/06/21 02:15:24;;;;;;;7.43;6.25;;;20.50;99.90;20.60;100235.00;;;;4947448;28;108288;-67
2023/06/21 02:17:51;;;;;;;10.75;7.72;;;20.50;99.90;20.60;100240.00;;;;4956166;28;116024;-67
2023/06/21 02:20:19;;;;;;;8.02;6.82;;;20.40;99.90;20.50;100238.00;;;;4976557;28;103654;-68
2023/06/21 02:22:46;;;;;;;9.25;7.47;;;20.40;99.90;20.50;100241.00;;;;4958788;28;87934;-66
2023/06/21 02:25:13;;;;;;;10.68;8.18;;;20.40;99.90;20.50;100231.00;;;;4969085;28;88940;-67
2023/06/21 02:27:39;;;;;;;12.45;8.32;;;20.30;99.90;20.40;100217.00;;;;4953645;28;88720;-67
2023/06/21 02:30:08;;;;;;;10.73;7.93;;;20.30;99.90;20.40;100210.00;;;;4969553;28;88594;-67
2023/06/21 02:32:34;;;;;;;9.18;7.38;;;20.20;99.90;20.30;100206.00;;;;4969156;28;88366;-66
2023/06/21 02:35:00;;;;;;;10.73;8.43;;;20.20;99.90;20.30;100208.00;;;;4966484;28;96289;-67
2023/06/21 02:37:28;;;;;;;10.57;9.27;;;20.20;99.90;20.30;100223.00;;;;4970540;28;88616;-66
2023/06/21 02:39:55;;;;;;;10.00;8.63;;;20.20;99.90;20.30;100222.00;;;;4951789;28;89151;-67
2023/06/21 02:42:21;;;;;;;10.82;8.32;;;20.20;99.90;20.30;100223.00;;;;4968428;28;96382;-67
2023/06/21 02:44:47;;;;;;;17.65;10.00;;;20.20;99.90;20.30;100219.00;;;;4968612;28;108775;-67
2023/06/21 02:47:12;;;;;;;9.80;7.63;;;20.20;99.90;20.30;100208.00;;;;4968653;28;117216;-67
2023/06/21 02:49:38;;;;;;;10.07;7.97;;;20.20;99.90;20.40;100221.00;;;;4975539;28;116740;-66
2023/06/21 02:52:04;;;;;;;11.90;8.25;;;20.20;99.90;20.40;100223.00;;;;4970217;28;93505;-66
2023/06/21 02:54:30;;;;;;;10.80;8.05;;;20.20;99.90;20.40;100239.00;;;;4972787;28;89096;-68
2023/06/21 02:56:56;;;;;;;10.45;8.13;;;20.20;99.90;20.40;100239.00;;;;4971614;28;87325;-67
2023/06/21 02:59:22;;;;;;;9.98;7.35;;;20.30;99.90;20.40;100249.00;;;;4968878;28;106495;-66
2023/06/21 03:01:48;;;;;;;13.48;7.63;;;20.30;99.90;20.40;100249.00;;;;4970158;28;93562;-66
2023/06/21 03:04:16;;;;;;;11.32;8.63;;;20.30;99.90;20.50;100252.00;;;;4969339;28;88655;-66
2023/06/21 03:06:42;;;;;;;11.30;8.13;;;20.30;99.90;20.50;100248.00;;;;4960220;28;88922;-67
2023/06/21 03:09:08;;;;;;;9.32;8.10;;;20.30;99.90;20.50;100259.00;;;;4951139;28;106640;-66
2023/06/21 03:11:34;;;;;;;10.02;7.85;;;20.30;99.90;20.50;100264.00;;;;4950198;28;87901;-67
2023/06/21 03:13:59;;;;;;;12.60;8.68;;;20.30;99.90;20.50;100257.00;;;;4932963;28;109840;-67
2023/06/21 03:16:25;;;;;;;12.43;8.68;;;20.40;99.90;20.50;100250.00;;;;4937151;28;117292;-67
2023/06/21 03:18:51;;;;;;;13.25;8.98;;;20.40;99.90;20.50;100254.00;;;;4937794;28;88789;-67
2023/06/21 03:21:17;;;;;;;11.10;8.07;;;20.40;99.90;20.50;100250.00;;;;4938518;28;108537;-67
2023/06/21 03:23:43;;;;;;;10.73;7.93;;;20.40;99.90;20.60;100251.00;;;;4937845;28;108542;-67
2023/06/21 03:26:09;;;;;;;17.02;8.50;;;20.40;99.90;20.60;100257.00;;;;4939880;28;89037;-67
2023/06/21 03:28:34;;;;;;;10.93;9.15;;;20.40;99.90;20.60;100262.00;;;;4936374;28;117550;-68
2023/06/21 03:31:00;;;;;;;16.23;10.20;;;20.40;99.90;20.60;100261.00;;;;4936172;28;110395;-69
2023/06/21 03:33:27;;;;;;;9.90;8.45;;;20.50;99.90;20.60;100256.00;;;;4936655;28;109146;-68
2023/06/21 03:35:53;;;;;;;12.02;9.48;;;20.50;99.90;20.60;100263.00;;;;4937756;28;88742;-68
2023/06/21 03:38:19;;;;;;;12.40;9.15;;;20.50;99.90;20.70;100266.00;;;;4939429;28;118133;-68
2023/06/21 03:40:45;;;;;;;9.68;8.43;;;20.50;99.90;20.70;100272.00;;;;4940414;28;89094;-67
2023/06/21 03:43:11;;;;;;;9.52;8.40;;;20.70;99.90;20.70;100268.00;;;;4940836;28;87656;-67
2023/06/21 03:45:36;;;;;;;10.65;8.63;;;20.50;99.90;20.70;100273.00;;;;4939902;28;88011;-67
2023/06/21 03:48:05;;;;;;;11.18;8.98;;;20.50;99.90;20.70;100281.00;;;;4938949;28;116688;-67
2023/06/21 03:50:32;;;;;;;10.93;9.13;;;20.60;99.90;20.70;100278.00;;;;4938835;28;87855;-67
2023/06/21 03:52:57;;;;;;;10.23;8.32;;;20.60;99.90;20.70;100284.00;;;;4939231;28;88990;-67
2023/06/21 03:55:23;;;;;;;10.30;8.10;;;20.60;99.90;20.80;100279.00;;;;4937826;28;88961;-67
2023/06/21 03:57:49;;;;;;;9.75;8.48;;;20.60;99.90;20.80;100278.00;;;;4934867;28;109767;-67
2023/06/21 04:00:15;;;;;;;9.55;7.65;;;20.60;99.90;20.80;100288.00;;;;4947225;28;110424;-67
2023/06/21 04:02:44;;;;;;;12.98;7.00;;;20.70;99.90;20.90;100296.00;;;;4937043;28;88067;-67
2023/06/21 04:05:10;;;;;;;11.70;9.77;;;20.70;99.90;20.90;100290.00;;;;4935901;28;117247;-68
2023/06/21 04:07:37;;;;;;;10.40;8.13;;;20.70;99.90;20.90;100300.00;;;;4956965;28;88029;-67
2023/06/21 04:10:04;;;;;;;13.50;8.68;;;20.80;99.90;21.00;100300.00;;;;4961401;28;100689;-67
2023/06/21 04:12:31;;;;;;;9.27;6.93;;;20.80;99.90;21.00;100312.00;;;;4957576;28;88757;-68
2023/06/21 04:15:00;;;;;;;12.15;9.02;;;20.80;99.90;21.10;100316.00;;;;4940252;28;88521;-67
2023/06/21 04:17:27;;;;;;;9.00;7.45;;;20.90;99.90;21.10;100320.00;;;;4954446;28;88855;-67
2023/06/21 04:19:54;;;;;;;10.23;7.65;;;20.90;99.90;21.10;100316.00;;;;4959614;28;88108;-68
2023/06/21 04:22:21;;;;;;;13.38;8.13;;;21.20;99.90;21.10;100316.00;;;;4956021;28;98844;-67
2023/06/21 04:24:46;;;;;;;9.90;8.02;;;20.90;99.90;21.10;100315.00;;;;4958014;28;89189;-67
2023/06/21 04:27:12;;;;;;;11.70;8.75;;;20.90;99.90;21.10;100326.00;;;;4953526;28;117415;-67
2023/06/21 04:29:40;;;;;;;8.80;7.40;;;20.90;99.90;21.10;100332.00;;;;4955040;28;110507;-67
2023/06/21 04:32:08;;;;;;;10.77;8.52;;;20.90;99.90;21.00;100334.00;;;;4956911;28;87912;-67
2023/06/21 04:34:34;;;;;;;12.98;8.07;;;20.90;99.90;21.00;100335.00;;;;4954568;28;88267;-67
2023/06/21 04:37:05;;;;;;;9.05;8.05;;;20.90;99.90;21.00;100335.00;;;;4956151;28;97484;-67
2023/06/21 04:39:32;;;;;;;11.02;7.80;;;20.90;99.90;21.00;100335.00;;;;4954454;28;88057;-68
2023/06/21 04:42:07;;;;;;;9.65;7.35;;;20.90;99.90;21.00;100340.00;;;;4963427;28;94185;-69
2023/06/21 04:44:33;;;;;;;8.05;6.60;;;20.90;99.90;21.00;100345.00;;;;4951592;28;87969;-68
2023/06/21 04:47:01;;;;;;;8.93;7.90;;;20.90;99.90;21.00;100335.00;;;;4954201;28;117446;-68
2023/06/21 04:49:29;;;;;;;12.13;8.07;;;20.90;99.90;21.00;100340.00;;;;4954233;28;88346;-68
2023/06/21 04:51:57;;;;;;;8.80;6.75;;;20.90;99.90;21.10;100338.00;;;;4952662;28;88154;-68
2023/06/21 04:54:28;;;;;;;6.72;6.03;;;20.90;99.90;21.10;100350.00;;;;4951128;28;89034;-69
2023/06/21 04:56:54;;;;;;;9.40;6.43;;;20.90;99.90;21.20;100349.00;;;;4954880;28;88008;-69
2023/06/21 04:59:19;;;;;;;7.30;6.00;;;21.00;99.90;21.30;100345.00;;;;4972360;28;87311;-68
2023/06/21 05:01:45;;;;;;;6.30;5.07;;;21.10;99.90;21.40;100345.00;;;;4975767;28;92103;-68
2023/06/21 05:04:11;;;;;;;6.03;4.75;;;21.20;99.90;21.50;100357.00;;;;4971019;28;87992;-69
2023/06/21 05:06:37;;;;;;;7.03;4.63;;;21.20;99.90;21.60;100351.00;;;;4957136;28;117185;-68
2023/06/21 05:09:04;;;;;;;5.43;4.20;;;21.40;99.90;21.70;100365.00;;;;4949654;28;87989;-67
2023/06/21 05:11:29;;;;;;;5.35;3.58;;;21.40;99.90;21.80;100358.00;;;;4950683;28;87766;-68
2023/06/21 05:13:55;;;;;;;5.03;3.53;;;21.60;99.90;21.90;100358.00;;;;4949788;28;103435;-68
2023/06/21 05:16:21;;;;;;;4.63;3.80;;;21.60;99.90;21.90;100365.00;;;;4949475;28;115918;-68
2023/06/21 05:18:46;;;;;;;5.78;3.47;;;21.80;99.90;22.10;100362.00;;;;4953713;28;109583;-67
2023/06/21 05:21:12;;;;;;;4.10;3.70;;;21.80;99.90;22.20;100366.00;;;;4952148;28;108638;-68
2023/06/21 05:23:38;;;;;;;5.00;3.33;;;22.00;99.90;22.30;100361.00;;;;4939342;28;115954;-67
2023/06/21 05:26:03;;;;;;;8.68;3.63;;;22.10;99.90;22.50;100362.00;;;;4954443;28;87873;-67
2023/06/21 05:28:29;;;;;;;4.05;3.10;;;22.20;99.90;22.60;100371.00;;;;4949628;28;113819;-68
2023/06/21 05:30:55;;;;;;;3.42;3.13;;;22.40;99.90;22.80;100366.00;;;;4952532;28;110174;-68
2023/06/21 05:33:20;;;;;;;3.85;2.53;;;22.60;99.90;22.90;100367.00;;;;4952655;28;116889;-68
2023/06/21 05:35:49;;;;;;;2.80;2.60;;;22.70;99.90;23.00;100373.00;;;;4959245;28;117455;-69
2023/06/21 05:38:15;;;;;;;3.80;2.65;;;22.80;99.90;23.20;100371.00;;;;4951126;28;107323;-69
2023/06/21 05:40:40;;;;;;;2.75;2.20;;;23.00;99.90;23.30;100366.00;;;;4951064;28;107585;-69
2023/06/21 05:43:06;;;;;;;3.85;2.58;;;23.10;99.90;23.50;100375.00;;;;4952140;28;117724;-68
2023/06/21 05:45:33;;;;;;;4.20;2.33;;;23.20;99.90;23.60;100370.00;;;;4951581;28;88288;-69
2023/06/21 05:48:00;;;;;;;3.60;2.15;;;23.40;99.90;23.80;100373.00;;;;4955260;28;86969;-68
2023/06/21 05:50:30;;;;;;;4.13;1.83;;;23.50;99.90;23.90;100370.00;;;;4947240;28;88360;-68
2023/06/21 05:52:57;;;;;;;7.82;4.35;;;23.70;99.90;24.00;100376.00;;;;4952253;28;88718;-68
2023/06/21 05:55:22;;;;;;;4.57;2.33;;;23.80;99.90;24.20;100380.00;;;;4950823;28;88710;-68
2023/06/21 05:57:49;;;;;;;3.53;2.47;;;24.00;99.90;24.30;100382.00;;;;4954181;28;103488;-67
2023/06/21 06:00:16;;;;;;;2.78;1.90;;;24.10;99.90;24.40;100366.00;;;;4951144;28;88171;-67
2023/06/21 06:02:42;;;;;;;2.75;2.28;;;24.20;99.90;24.50;100375.00;;;;4953285;28;110011;-67
2023/06/21 06:05:09;;;;;;;4.85;2.83;;;24.30;99.90;24.60;100374.00;;;;4949956;28;117443;-67
2023/06/21 06:07:34;;;;;;;2.03;1.75;;;24.40;99.90;24.70;100375.00;;;;4965347;28;95172;-69
2023/06/21 06:10:00;;;;;;;3.92;2.83;;;24.50;99.90;24.90;100382.00;;;;4964510;28;108047;-68
2023/06/21 06:12:26;;;;;;;2.08;1.88;;;24.70;99.90;25.10;100373.00;;;;4972858;28;106950;-67
2023/06/21 06:14:52;;;;;;;1.88;1.58;;;24.80;99.90;25.20;100383.00;;;;4970212;28;116295;-66
2023/06/21 06:17:18;;;;;;;2.65;2.13;;;25.00;99.90;25.30;100375.00;;;;4969166;28;87886;-65
2023/06/21 06:19:44;;;;;;;4.65;2.65;;;25.10;99.90;25.50;100383.00;;;;4971143;28;88723;-67
2023/06/21 06:22:09;;;;;;;3.97;1.88;;;25.20;99.90;25.60;100381.00;;;;4970423;28;118281;-66
2023/06/21 06:24:35;;;;;;;2.40;2.17;;;25.40;99.90;25.70;100387.00;;;;4970141;28;89972;-66
2023/06/21 06:27:01;;;;;;;8.02;2.00;;;25.50;99.90;25.90;100392.00;;;;4969852;28;111615;-68
2023/06/21 06:29:26;;;;;;;2.30;2.10;;;25.70;99.90;26.10;100404.00;;;;4976885;28;88692;-67
2023/06/21 06:31:52;;;;;;;4.10;2.42;;;25.80;99.90;26.20;100393.00;;;;4973363;28;117160;-68
2023/06/21 06:34:19;;;;;;;2.25;2.05;;;26.00;99.90;26.40;100407.00;;;;4974284;28;116648;-67
2023/06/21 06:36:45;;;;;;;3.10;2.20;;;26.10;99.90;26.50;100396.00;;;;4974601;28;87446;-66
2023/06/21 06:39:12;;;;;;;3.75;1.83;;;26.20;99.90;26.60;100406.00;;;;4972390;28;87876;-67
2023/06/21 06:41:37;;;;;;;4.38;2.30;;;26.30;99.90;26.70;100407.00;;;;4973261;28;88592;-67
2023/06/21 06:44:04;;;;;;;11.20;2.60;;;26.40;99.90;26.70;100406.00;;;;4968099;28;117336;-66
2023/06/21 06:46:30;;;;;;;6.40;2.50;;;26.50;99.90;26.80;100425.00;;;;4973987;28;87548;-67
2023/06/21 06:48:55;;;;;;;3.53;2.80;;;26.60;99.90;26.80;100423.00;;;;4971965;28;106808;-65
2023/06/21 06:51:21;;;;;;;3.17;2.60;;;26.60;99.90;26.90;100430.00;;;;4973088;28;117651;-67
2023/06/21 06:53:50;;;;;;;3.83;2.92;;;26.70;99.90;26.90;100438.00;;;;4977722;28;117706;-67
2023/06/21 06:56:15;;;;;;;3.08;2.25;;;26.70;99.90;27.00;100436.00;;;;4977435;28;89262;-66
2023/06/21 06:58:41;;;;;;;4.85;2.80;;;26.80;99.90;27.10;100436.00;;;;4972971;28;108177;-66
2023/06/21 07:01:07;;;;;;;3.67;2.90;;;26.80;99.90;27.10;100444.00;;;;4971425;28;87989;-67
2023/06/21 07:03:34;;;;;;;2.42;1.80;;;26.90;99.90;27.30;100454.00;;;;4977373;28;99162;-66
2023/06/21 07:05:59;;;;;;;2.85;2.33;;;27.00;99.90;27.40;100462.00;;;;4974838;28;102841;-67
2023/06/21 07:08:26;;;;;;;4.78;3.20;;;27.20;99.90;27.50;100468.00;;;;4974482;28;109218;-66
2023/06/21 07:10:52;;;;;;;2.72;1.95;;;27.30;99.50;27.60;100469.00;;;;4973974;28;88059;-66
2023/06/21 07:13:18;;;;;;;6.95;3.05;;;27.30;99.10;27.60;100479.00;;;;4971621;28;110194;-66
2023/06/21 07:15:44;;;;;;;4.22;2.53;;;27.40;99.00;27.70;100482.00;;;;4974652;28;87776;-67
2023/06/21 07:18:11;;;;;;;4.10;2.85;;;27.50;98.80;27.90;100484.00;;;;4975367;28;100215;-67
2023/06/21 07:20:36;;;;;;;2.65;2.40;;;27.60;98.60;28.00;100482.00;;;;4974891;28;87577;-67
2023/06/21 07:23:03;;;;;;;3.88;3.03;;;27.70;97.90;28.00;100479.00;;;;4975288;28;117287;-68
2023/06/21 07:25:28;;;;;;;3.83;2.58;;;27.80;97.60;28.00;100475.00;;;;4959028;28;87004;-67
2023/06/21 07:27:55;;;;;;;2.70;2.47;;;27.80;97.00;27.90;100493.00;;;;4976026;28;87594;-67
2023/06/21 07:30:22;;;;;;;4.40;2.80;;;27.80;96.90;27.90;100491.00;;;;4957153;28;87961;-67
2023/06/21 07:32:48;;;;;;;2.63;2.28;;;27.80;96.90;28.00;100474.00;;;;4971386;28;89107;-67
2023/06/21 07:35:15;;;;;;;3.38;3.05;;;27.80;96.70;28.00;100486.00;;;;4974280;28;101923;-67
2023/06/21 07:37:55;;;;;;;2.53;2.33;;;27.80;96.70;28.10;100479.00;;;;4977894;28;87953;-68
2023/06/21 07:40:21;;;;;;;2.65;2.38;;;27.90;96.50;28.20;100493.00;;;;4971871;28;110425;-67
2023/06/21 07:42:47;;;;;;;5.00;3.30;;;28.00;96.60;28.40;100497.00;;;;4972509;28;88622;-67
2023/06/21 07:45:12;;;;;;;3.63;2.58;;;28.10;96.70;28.60;100503.00;;;;4976459;28;87814;-69
2023/06/21 07:47:39;;;;;;;4.45;2.90;;;28.30;96.20;28.70;100504.00;;;;4971814;28;94926;-69
2023/06/21 07:50:05;;;;;;;3.95;2.83;;;28.40;95.80;28.80;100507.00;;;;4972798;28;88116;-68
2023/06/21 07:52:31;;;;;;;5.97;3.45;;;28.50;95.30;28.80;100499.00;;;;4972679;28;108569;-69
2023/06/21 07:54:57;;;;;;;6.45;3.05;;;28.60;94.70;28.80;100511.00;;;;4976923;28;88063;-69
2023/06/21 07:57:23;;;;;;;3.30;2.53;;;28.60;94.80;28.90;100511.00;;;;4957992;28;88811;-70
2023/06/21 07:59:48;;;;;;;3.40;3.05;;;28.70;94.30;29.00;100512.00;;;;4975298;28;115973;-69
2023/06/21 08:02:17;;;;;;;5.25;3.17;;;28.80;94.20;29.10;100511.00;;;;4973807;28;88321;-69
2023/06/21 08:04:46;;;;;;;6.57;2.83;;;28.90;93.70;29.20;100522.00;;;;4975940;28;88092;-69
2023/06/21 08:07:12;;;;;;;3.15;2.50;;;29.00;93.50;29.30;100516.00;;;;4953145;28;87748;-69
2023/06/21 08:09:38;;;;;;;3.75;3.20;;;29.10;93.60;29.50;100522.00;;;;4974988;28;89186;-69
2023/06/21 08:12:04;;;;;;;3.00;2.30;;;29.20;93.20;29.60;100534.00;;;;4972756;28;110870;-69
2023/06/21 08:14:30;;;;;;;5.35;2.95;;;29.30;92.30;29.70;100533.00;;;;4979381;28;91417;-69
2023/06/21 08:16:56;;;;;;;3.20;2.30;;;29.40;91.90;29.90;100539.00;;;;4972997;28;109871;-71
2023/06/21 08:19:21;;;;;;;3.70;2.15;;;29.50;91.80;30.00;100537.00;;;;4973255;28;116837;-72
2023/06/21 08:21:47;;;;;;;2.67;2.40;;;29.70;91.40;30.10;100541.00;;;;4970694;28;88944;-73
2023/06/21 08:24:13;;;;;;;6.45;2.65;;;29.80;90.80;30.00;100539.00;;;;4973648;28;109984;-72
2023/06/21 08:26:39;;;;;;;3.40;3.10;;;29.80;89.50;30.00;100547.00;;;;4978057;28;87921;-72
2023/06/21 08:29:04;;;;;;;4.63;2.55;;;29.80;89.00;29.90;100546.00;;;;4974350;28;117382;-73
2023/06/21 08:31:30;;;;;;;10.93;2.75;;;29.80;87.90;29.90;100546.00;;;;4974657;28;115986;-73
2023/06/21 08:33:56;;;;;;;5.70;1.90;;;29.70;88.00;30.10;100554.00;;;;4970473;28;88241;-73
2023/06/21 08:36:22;;;;;;;2.72;2.33;;;29.80;87.70;30.20;100570.00;;;;4938684;28;108782;-73
2023/06/21 08:38:48;;;;;;;5.82;3.13;;;29.90;87.20;30.30;100559.00;;;;4976061;28;88413;-73
2023/06/21 08:41:14;;;;;;;3.00;2.75;;;30.00;85.30;30.30;100557.00;;;;4973715;28;116722;-73
2023/06/21 08:43:39;;;;;;;2.97;1.92;;;30.10;84.60;30.30;100562.00;;;;4959876;28;88060;-74
2023/06/21 08:46:06;;;;;;;5.78;2.17;;;30.10;83.70;30.40;100567.00;;;;4972281;28;107262;-72
2023/06/21 08:48:33;;;;;;;4.03;2.92;;;30.10;83.20;30.40;100566.00;;;;4971651;28;88126;-73
2023/06/21 08:51:00;;;;;;;5.72;2.78;;;30.20;82.20;30.40;100569.00;;;;4957439;28;88057;-73
2023/06/21 08:53:38;;;;;;;5.32;2.72;;;30.20;82.20;30.40;100579.00;;;;4977131;28;111082;-71
2023/06/21 08:56:06;;;;;;;2.53;2.33;;;30.20;80.90;30.40;100568.00;;;;4976742;28;87988;-74
2023/06/21 08:58:40;;;;;;;3.58;2.40;;;30.20;80.80;30.50;100580.00;;;;4974332;28;88187;-71
2023/06/21 09:01:10;;;;;;;5.28;2.95;;;30.20;80.90;30.60;100569.00;;;;4956095;28;107517;-74
2023/06/21 09:03:56;;;;;;;2.40;1.95;;;30.30;80.20;30.80;100575.00;;;;4940602;28;108979;-75
2023/06/21 09:06:24;;;;;;;4.80;2.78;;;30.40;80.40;31.00;100580.00;;;;4962900;28;88145;-70
2023/06/21 09:08:55;;;;;;;6.97;2.90;;;30.60;78.10;31.00;100582.00;;;;4957850;28;87831;-72
2023/06/21 09:11:22;;;;;;;4.38;2.00;;;30.70;77.70;31.00;100582.00;;;;4970699;28;89005;-72
2023/06/21 09:13:49;;;;;;;2.78;2.10;;;30.80;77.00;31.10;100577.00;;;;4970614;28;87611;-73
2023/06/21 09:16:15;;;;;;;4.72;2.15;;;30.80;77.20;31.30;100583.00;;;;4971033;28;88361;-73
2023/06/21 09:18:41;;;;;;;5.03;2.72;;;31.00;76.50;31.40;100581.00;;;;4953032;28;116857;-72
2023/06/21 09:21:10;;;;;;;5.22;2.22;;;31.10;74.80;31.50;100586.00;;;;4965879;28;113617;-73
2023/06/21 09:23:39;;;;;;;6.78;2.33;;;31.20;73.70;31.40;100580.00;;;;4942241;28;88056;-73
2023/06/21 09:26:08;;;;;;;4.13;3.08;;;31.20;73.60;31.30;100586.00;;;;4969903;28;87863;-73
2023/06/21 09:28:34;;;;;;;3.40;2.20;;;31.10;73.30;31.30;100567.00;;;;4972903;28;88868;-74
2023/06/21 09:31:00;;;;;;;2.42;2.15;;;31.50;74.40;31.50;100576.00;;;;4952673;28;116742;-72
2023/06/21 09:33:26;;;;;;;3.83;2.33;;;31.20;74.70;31.90;100582.00;;;;4971201;28;108756;-73
2023/06/21 09:35:52;;;;;;;3.25;1.95;;;31.40;74.80;32.20;100588.00;;;;4953400;28;103375;-74
2023/06/21 09:38:32;;;;;;;3.63;2.50;;;31.80;73.30;32.50;100589.00;;;;4971055;28;117318;-73
2023/06/21 09:41:00;;;;;;;4.20;2.53;;;32.10;72.40;32.60;100589.00;;;;4955061;28;87945;-73
2023/06/21 09:43:25;;;;;;;3.03;2.72;;;32.20;70.00;32.50;100599.00;;;;4958645;28;88262;-75
2023/06/21 09:46:07;;;;;;;2.13;1.77;;;32.10;68.60;32.50;100598.00;;;;4958895;28;108217;-75
2023/06/21 09:48:37;;;;;;;3.75;2.28;;;32.10;68.80;32.60;100592.00;;;;4956188;28;87760;-74
2023/06/21 09:51:08;;;;;;;2.95;2.17;;;32.20;68.50;32.70;100591.00;;;;4955014;28;87780;-74
2023/06/21 09:53:35;;;;;;;4.15;2.60;;;32.30;67.70;32.70;100605.00;;;;4958415;28;87042;-74
2023/06/21 09:56:02;;;;;;;3.47;2.22;;;32.30;67.40;32.70;100609.00;;;;4975863;28;87945;-75
2023/06/21 09:58:33;;;;;;;3.58;2.45;;;32.30;66.70;32.70;100604.00;;;;4975548;28;89660;-74
2023/06/21 10:00:58;;;;;;;3.75;2.70;;;32.30;67.00;32.80;100608.00;;;;4954284;28;89290;-75
2023/06/21 10:03:25;;;;;;;2.85;2.38;;;32.40;67.00;32.80;100613.00;;;;4937647;28;88034;-73
2023/06/21 10:05:59;;;;;;;2.63;2.30;;;32.50;66.70;33.00;100616.00;;;;4969319;28;107409;-73
2023/06/21 10:08:31;;;;;;;3.85;2.75;;;32.60;66.80;33.20;100616.00;;;;4971001;28;89015;-75
2023/06/21 10:10:57;;;;;;;6.63;2.35;;;32.70;66.30;33.30;100610.00;;;;4954638;28;88021;-74
2023/06/21 10:13:34;;;;;;;2.55;1.90;;;32.90;65.40;33.20;100614.00;;;;4969906;28;101059;-74
2023/06/21 10:16:01;;;;;;;5.95;2.40;;;32.80;64.20;33.00;100598.00;;;;4971195;28;87788;-73
2023/06/21 10:18:28;;;;;;;4.45;2.40;;;32.70;63.90;32.90;100594.00;;;;4971377;28;87676;-74
2023/06/21 10:21:03;;;;;;;3.50;2.65;;;32.60;62.50;32.90;100599.00;;;;4954183;28;88063;-74
2023/06/21 10:23:35;;;;;;;3.55;1.80;;;32.50;63.60;33.10;100598.00;;;;4971181;28;87774;-75
2023/06/21 10:26:06;;;;;;;2.55;1.85;;;32.60;62.80;33.20;100588.00;;;;4942382;28;98482;-73
2023/06/21 10:28:42;;;;;;;2.42;2.22;;;32.70;60.30;33.20;100603.00;;;;4972949;28;88718;-74
2023/06/21 10:31:09;;;;;;;3.15;2.53;;;32.70;59.70;33.30;100596.00;;;;4951859;28;87822;-73
2023/06/21 10:33:36;;;;;;;5.28;3.13;;;32.80;60.40;33.60;100597.00;;;;4956057;28;107744;-77
2023/06/21 10:36:04;;;;;;;3.13;2.40;;;33.00;60.00;33.90;100591.00;;;;4968666;28;94926;-75
2023/06/21 10:38:48;;;;;;;3.20;1.60;;;33.20;59.60;34.20;100596.00;;;;4939155;28;101465;-73
2023/06/21 10:41:14;;;;;;;3.63;2.58;;;33.50;59.50;34.50;100599.00;;;;4953288;28;104063;-74
2023/06/21 10:43:42;;;;;;;3.13;1.73;;;33.80;59.40;34.60;100607.00;;;;4958548;28;87714;-74
2023/06/21 10:46:10;;;;;;;3.55;1.75;;;34.00;58.90;34.70;100596.00;;;;4973453;28;87857;-73